createdAt,value
2019-05-14T00:00:11.572Z,1015.86
2019-05-14T00:01:11.991Z,1015.84
2019-05-14T00:02:12.228Z,1015.86
2019-05-14T00:03:11.538Z,1015.85
2019-05-14T00:04:11.709Z,1015.88
2019-05-14T00:05:12.158Z,1015.96
2019-05-14T00:06:11.655Z,1015.83
2019-05-14T00:07:11.747Z,1015.90
2019-05-14T00:08:11.546Z,1015.82
2019-05-14T00:09:12.131Z,1015.90
2019-05-14T00:10:11.861Z,1015.84
2019-05-14T00:11:13.015Z,1015.80
2019-05-14T00:12:11.623Z,1015.83
2019-05-14T00:13:12.052Z,1015.79
2019-05-14T00:14:11.779Z,1015.86
2019-05-14T00:15:11.402Z,1015.81
2019-05-14T00:16:11.910Z,1015.82
2019-05-14T00:17:11.556Z,1015.77
2019-05-14T00:18:11.815Z,1015.83
2019-05-14T00:19:11.383Z,1015.73
2019-05-14T00:20:13.348Z,1015.76
2019-05-14T00:21:12.160Z,1015.77
2019-05-14T00:22:11.755Z,1015.86
2019-05-14T00:23:11.824Z,1015.81
2019-05-14T00:24:11.532Z,1015.79
2019-05-14T00:25:11.797Z,1015.77
2019-05-14T00:26:12.146Z,1015.78
2019-05-14T00:27:11.665Z,1015.84
2019-05-14T00:28:11.790Z,1015.83
2019-05-14T00:29:11.536Z,1015.76
2019-05-14T00:30:11.568Z,1015.81
2019-05-14T00:31:12.131Z,1015.81
2019-05-14T00:32:11.504Z,1015.82
2019-05-14T00:33:11.610Z,1015.75
2019-05-14T00:34:11.342Z,1015.73
2019-05-14T00:35:11.295Z,1015.76
2019-05-14T00:36:11.355Z,1015.76
2019-05-14T00:37:11.674Z,1015.76
2019-05-14T00:38:11.912Z,1015.74
2019-05-14T00:39:11.419Z,1015.79
2019-05-14T00:40:11.794Z,1015.71
2019-05-14T00:41:11.221Z,1015.73
2019-05-14T00:42:12.584Z,1015.69
2019-05-14T00:43:11.459Z,1015.70
2019-05-14T00:44:13.349Z,1015.72
2019-05-14T00:45:11.543Z,1015.74
2019-05-14T00:46:11.861Z,1015.77
2019-05-14T00:47:11.313Z,1015.82
2019-05-14T00:48:12.941Z,1015.79
2019-05-14T00:49:11.894Z,1015.74
2019-05-14T00:50:11.397Z,1015.72
2019-05-14T00:51:11.145Z,1015.76
2019-05-14T00:52:11.679Z,1015.77
2019-05-14T00:53:11.792Z,1015.78
2019-05-14T00:54:11.294Z,1015.78
2019-05-14T00:55:11.770Z,1015.72
2019-05-14T00:56:11.149Z,1015.72
2019-05-14T00:57:11.953Z,1015.79
2019-05-14T00:58:11.305Z,1015.79
2019-05-14T00:59:11.448Z,1015.78
2019-05-14T01:00:11.638Z,1015.78
2019-05-14T01:01:11.820Z,1015.81
2019-05-14T01:02:11.588Z,1015.78
2019-05-14T01:03:11.143Z,1015.80
2019-05-14T01:04:11.761Z,1015.81
2019-05-14T01:05:12.360Z,1015.87
2019-05-14T01:06:11.377Z,1015.84
2019-05-14T01:07:11.868Z,1015.71
2019-05-14T01:08:11.991Z,1015.78
2019-05-14T01:09:11.451Z,1015.75
2019-05-14T01:10:11.630Z,1015.76
2019-05-14T01:11:11.863Z,1015.78
2019-05-14T01:12:12.156Z,1015.63
2019-05-14T01:13:11.209Z,1015.75
2019-05-14T01:14:12.256Z,1015.69
2019-05-14T01:15:14.078Z,1015.74
2019-05-14T01:16:12.035Z,1015.74
2019-05-14T01:17:11.316Z,1015.68
2019-05-14T01:18:11.363Z,1015.75
2019-05-14T01:19:12.397Z,1015.69
2019-05-14T01:20:12.438Z,1015.68
2019-05-14T01:21:11.669Z,1015.62
2019-05-14T01:22:12.467Z,1015.65
2019-05-14T01:23:11.528Z,1015.71
2019-05-14T01:24:12.607Z,1015.66
2019-05-14T01:25:12.003Z,1015.63
2019-05-14T01:26:11.541Z,1015.68
2019-05-14T01:27:12.485Z,1015.60
2019-05-14T01:28:11.326Z,1015.66
2019-05-14T01:29:11.929Z,1015.52
2019-05-14T01:30:12.515Z,1015.59
2019-05-14T01:31:11.341Z,1015.59
2019-05-14T01:32:11.657Z,1015.70
2019-05-14T01:33:11.890Z,1015.60
2019-05-14T01:34:11.165Z,1015.56
2019-05-14T01:35:12.109Z,1015.56
2019-05-14T01:36:12.319Z,1015.62
2019-05-14T01:37:11.730Z,1015.59
2019-05-14T01:38:11.464Z,1015.57
2019-05-14T01:39:12.141Z,1015.68
2019-05-14T01:40:11.395Z,1015.73
2019-05-14T01:41:11.830Z,1015.63
2019-05-14T01:42:12.441Z,1015.76
2019-05-14T01:43:11.528Z,1015.71
2019-05-14T01:44:11.958Z,1015.66
2019-05-14T01:45:21.895Z,1015.69
2019-05-14T01:46:12.128Z,1015.72
2019-05-14T01:47:12.442Z,1015.67
2019-05-14T01:48:11.679Z,1015.74
2019-05-14T01:49:12.051Z,1015.72
2019-05-14T01:50:11.339Z,1015.75
2019-05-14T01:51:11.930Z,1015.76
2019-05-14T01:52:11.225Z,1015.80
2019-05-14T01:53:11.519Z,1015.69
2019-05-14T01:54:11.957Z,1015.68
2019-05-14T01:55:11.416Z,1015.67
2019-05-14T01:56:11.958Z,1015.67
2019-05-14T01:57:11.482Z,1015.64
2019-05-14T01:58:11.522Z,1015.66
2019-05-14T01:59:12.078Z,1015.65
2019-05-14T02:00:11.450Z,1015.60
2019-05-14T02:01:12.038Z,1015.62
2019-05-14T02:02:11.546Z,1015.60
2019-05-14T02:03:12.155Z,1015.56
2019-05-14T02:04:11.627Z,1015.56
2019-05-14T02:05:12.248Z,1015.61
2019-05-14T02:06:11.866Z,1015.58
2019-05-14T02:07:11.538Z,1015.61
2019-05-14T02:08:12.129Z,1015.60
2019-05-14T02:09:11.118Z,1015.58
2019-05-14T02:10:11.631Z,1015.62
2019-05-14T02:11:12.078Z,1015.54
2019-05-14T02:12:11.656Z,1015.60
2019-05-14T02:13:12.094Z,1015.53
2019-05-14T02:14:11.675Z,1015.54
2019-05-14T02:15:12.019Z,1015.50
2019-05-14T02:16:12.939Z,1015.56
2019-05-14T02:17:12.184Z,1015.60
2019-05-14T02:18:11.127Z,1015.53
2019-05-14T02:19:11.523Z,1015.53
2019-05-14T02:20:12.334Z,1015.51
2019-05-14T02:21:11.828Z,1015.52
2019-05-14T02:22:11.265Z,1015.56
2019-05-14T02:23:11.855Z,1015.61
2019-05-14T02:24:11.334Z,1015.54
2019-05-14T02:25:11.661Z,1015.54
2019-05-14T02:26:11.414Z,1015.50
2019-05-14T02:27:12.090Z,1015.56
2019-05-14T02:28:11.546Z,1015.56
2019-05-14T02:29:12.299Z,1015.60
2019-05-14T02:30:09.872Z,1015.61
2019-05-14T02:31:09.872Z,1015.61
2019-05-14T02:32:10.702Z,1015.62
2019-05-14T02:33:09.841Z,1015.64
2019-05-14T02:34:10.328Z,1015.61
2019-05-14T02:35:10.295Z,1015.55
2019-05-14T02:36:10.542Z,1015.59
2019-05-14T02:37:09.808Z,1015.67
2019-05-14T02:38:10.414Z,1015.67
2019-05-14T02:39:10.407Z,1015.61
2019-05-14T02:40:10.075Z,1015.60
2019-05-14T02:41:10.126Z,1015.53
2019-05-14T02:42:09.957Z,1015.58
2019-05-14T02:43:09.826Z,1015.53
2019-05-14T02:44:10.149Z,1015.49
2019-05-14T02:45:09.710Z,1015.47
2019-05-14T02:46:13.048Z,1015.48
2019-05-14T02:47:10.691Z,1015.47
2019-05-14T02:48:09.694Z,1015.56
2019-05-14T02:49:10.625Z,1015.53
2019-05-14T02:50:10.261Z,1015.48
2019-05-14T02:51:10.471Z,1015.51
2019-05-14T02:52:10.369Z,1015.48
2019-05-14T02:53:10.435Z,1015.43
2019-05-14T02:54:10.171Z,1015.48
2019-05-14T02:55:09.737Z,1015.44
2019-05-14T02:56:10.546Z,1015.35
2019-05-14T02:57:10.662Z,1015.40
2019-05-14T02:58:10.136Z,1015.35
2019-05-14T02:59:09.956Z,1015.40
2019-05-14T03:00:10.422Z,1015.36
2019-05-14T03:01:09.695Z,1015.33
2019-05-14T03:02:10.379Z,1015.30
2019-05-14T03:03:09.964Z,1015.42
2019-05-14T03:04:09.481Z,1015.38
2019-05-14T03:05:09.934Z,1015.38
2019-05-14T03:06:09.687Z,1015.47
2019-05-14T03:07:10.826Z,1015.31
2019-05-14T03:08:09.501Z,1015.43
2019-05-14T03:09:09.925Z,1015.35
2019-05-14T03:10:10.219Z,1015.28
2019-05-14T03:11:09.666Z,1015.42
2019-05-14T03:12:10.205Z,1015.32
2019-05-14T03:13:09.681Z,1015.30
2019-05-14T03:14:09.434Z,1015.41
2019-05-14T03:15:09.843Z,1015.34
2019-05-14T03:16:22.215Z,1015.33
2019-05-14T03:17:10.942Z,1015.33
2019-05-14T03:18:09.473Z,1015.31
2019-05-14T03:19:09.911Z,1015.32
2019-05-14T03:20:09.494Z,1015.34
2019-05-14T03:21:09.522Z,1015.34
2019-05-14T03:22:10.276Z,1015.30
2019-05-14T03:23:15.626Z,1015.40
2019-05-14T03:24:10.261Z,1015.39
2019-05-14T03:25:10.136Z,1015.35
2019-05-14T03:26:09.722Z,1015.34
2019-05-14T03:27:09.925Z,1015.34
2019-05-14T03:28:09.478Z,1015.40
2019-05-14T03:29:10.113Z,1015.38
2019-05-14T03:30:12.776Z,1015.39
2019-05-14T03:31:12.710Z,1015.37
2019-05-14T03:32:12.800Z,1015.41
2019-05-14T03:33:13.262Z,1015.37
2019-05-14T03:34:13.611Z,1015.33
2019-05-14T03:35:13.606Z,1015.38
2019-05-14T03:36:17.344Z,1015.39
2019-05-14T03:37:12.733Z,1015.40
2019-05-14T03:38:09.528Z,1015.38
2019-05-14T03:39:10.500Z,1015.48
2019-05-14T03:40:09.511Z,1015.46
2019-05-14T03:41:10.699Z,1015.48
2019-05-14T03:42:09.764Z,1015.45
2019-05-14T03:43:09.148Z,1015.47
2019-05-14T03:44:09.845Z,1015.41
2019-05-14T03:45:09.023Z,1015.38
2019-05-14T03:46:09.794Z,1015.29
2019-05-14T03:47:10.302Z,1015.38
2019-05-14T03:48:10.290Z,1015.40
2019-05-14T03:49:09.457Z,1015.36
2019-05-14T03:50:10.173Z,1015.37
2019-05-14T03:51:09.218Z,1015.31
2019-05-14T03:52:09.624Z,1015.40
2019-05-14T03:53:10.175Z,1015.36
2019-05-14T03:54:12.565Z,1015.44
2019-05-14T03:55:09.679Z,1015.39
2019-05-14T03:56:10.321Z,1015.39
2019-05-14T03:57:09.447Z,1015.31
2019-05-14T03:58:09.910Z,1015.42
2019-05-14T03:59:09.781Z,1015.39
2019-05-14T04:00:10.336Z,1015.31
2019-05-14T04:01:09.636Z,1015.40
2019-05-14T04:02:09.750Z,1015.36
2019-05-14T04:03:09.667Z,1015.42
2019-05-14T04:04:10.171Z,1015.42
2019-05-14T04:05:09.694Z,1015.47
2019-05-14T04:06:10.075Z,1015.37
2019-05-14T04:07:09.834Z,1015.36
2019-05-14T04:08:09.691Z,1015.39
2019-05-14T04:09:09.642Z,1015.41
2019-05-14T04:10:10.297Z,1015.29
2019-05-14T04:11:09.549Z,1015.34
2019-05-14T04:12:10.063Z,1015.39
2019-05-14T04:13:09.138Z,1015.37
2019-05-14T04:14:09.744Z,1015.37
2019-05-14T04:15:09.809Z,1015.37
2019-05-14T04:16:09.490Z,1015.41
2019-05-14T04:17:13.894Z,1015.42
2019-05-14T04:18:09.692Z,1015.44
2019-05-14T04:19:09.983Z,1015.50
2019-05-14T04:20:09.685Z,1015.45
2019-05-14T04:21:10.103Z,1015.49
2019-05-14T04:22:10.146Z,1015.46
2019-05-14T04:23:09.430Z,1015.43
2019-05-14T04:24:09.769Z,1015.47
2019-05-14T04:25:10.978Z,1015.45
2019-05-14T04:26:09.338Z,1015.56
2019-05-14T04:27:12.834Z,1015.39
2019-05-14T04:28:09.833Z,1015.40
2019-05-14T04:29:10.166Z,1015.41
2019-05-14T04:30:09.468Z,1015.46
2019-05-14T04:31:09.832Z,1015.40
2019-05-14T04:32:09.454Z,1015.45
2019-05-14T04:33:10.618Z,1015.47
2019-05-14T04:34:10.760Z,1015.51
2019-05-14T04:35:09.568Z,1015.44
2019-05-14T04:36:09.991Z,1015.46
2019-05-14T04:37:09.689Z,1015.50
2019-05-14T04:38:09.643Z,1015.55
2019-05-14T04:39:09.426Z,1015.46
2019-05-14T04:40:09.991Z,1015.42
2019-05-14T04:41:10.355Z,1015.45
2019-05-14T04:42:09.555Z,1015.48
2019-05-14T04:43:10.219Z,1015.51
2019-05-14T04:44:09.791Z,1015.46
2019-05-14T04:45:11.030Z,1015.47
2019-05-14T04:46:10.379Z,1015.46
2019-05-14T04:47:22.946Z,1015.48
2019-05-14T04:48:27.066Z,1015.44
2019-05-14T04:49:09.890Z,1015.41
2019-05-14T04:50:10.518Z,1015.57
2019-05-14T04:51:09.792Z,1015.52
2019-05-14T04:52:09.985Z,1015.54
2019-05-14T04:53:09.027Z,1015.46
2019-05-14T04:54:09.461Z,1015.46
2019-05-14T04:55:09.869Z,1015.49
2019-05-14T04:56:09.865Z,1015.48
2019-05-14T04:57:10.306Z,1015.52
2019-05-14T04:58:10.138Z,1015.44
2019-05-14T04:59:10.456Z,1015.51
2019-05-14T05:00:11.707Z,1015.48
2019-05-14T05:01:09.814Z,1015.45
2019-05-14T05:02:09.560Z,1015.41
2019-05-14T05:03:12.316Z,1015.52
2019-05-14T05:04:09.571Z,1015.43
2019-05-14T05:05:09.080Z,1015.44
2019-05-14T05:06:09.864Z,1015.46
2019-05-14T05:07:09.940Z,1015.43
2019-05-14T05:08:09.074Z,1015.44
2019-05-14T05:09:09.377Z,1015.44
2019-05-14T05:10:10.198Z,1015.45
2019-05-14T05:11:09.363Z,1015.50
2019-05-14T05:12:09.098Z,1015.52
2019-05-14T05:13:09.223Z,1015.43
2019-05-14T05:14:08.865Z,1015.41
2019-05-14T05:15:09.301Z,1015.47
2019-05-14T05:16:09.891Z,1015.50
2019-05-14T05:17:09.253Z,1015.46
2019-05-14T05:18:09.597Z,1015.46
2019-05-14T05:19:10.392Z,1015.44
2019-05-14T05:20:09.921Z,1015.53
2019-05-14T05:21:08.777Z,1015.53
2019-05-14T05:22:08.143Z,1015.49
2019-05-14T05:23:08.518Z,1015.50
2019-05-14T05:24:09.169Z,1015.47
2019-05-14T05:25:08.423Z,1015.58
2019-05-14T05:26:09.144Z,1015.47
2019-05-14T05:27:09.318Z,1015.49
2019-05-14T05:28:08.828Z,1015.46
2019-05-14T05:29:10.364Z,1015.50
2019-05-14T05:30:08.576Z,1015.43
2019-05-14T05:31:09.332Z,1015.45
2019-05-14T05:32:08.669Z,1015.48
2019-05-14T05:33:09.077Z,1015.43
2019-05-14T05:34:08.969Z,1015.48
2019-05-14T05:35:09.497Z,1015.45
2019-05-14T05:36:09.443Z,1015.44
2019-05-14T05:37:08.616Z,1015.47
2019-05-14T05:38:08.745Z,1015.40
2019-05-14T05:39:08.654Z,1015.45
2019-05-14T05:40:09.159Z,1015.50
2019-05-14T05:41:08.849Z,1015.39
2019-05-14T05:42:09.231Z,1015.48
2019-05-14T05:43:08.947Z,1015.51
2019-05-14T05:44:08.243Z,1015.40
2019-05-14T05:45:08.188Z,1015.42
2019-05-14T05:46:08.670Z,1015.46
2019-05-14T05:47:09.230Z,1015.46
2019-05-14T05:48:08.204Z,1015.46
2019-05-14T05:49:08.132Z,1015.38
2019-05-14T05:50:08.749Z,1015.46
2019-05-14T05:51:09.111Z,1015.43
2019-05-14T05:52:08.499Z,1015.42
2019-05-14T05:53:09.027Z,1015.40
2019-05-14T05:54:09.210Z,1015.40
2019-05-14T05:55:08.906Z,1015.42
2019-05-14T05:56:08.934Z,1015.42
2019-05-14T05:57:09.334Z,1015.44
2019-05-14T05:58:08.681Z,1015.39
2019-05-14T05:59:09.571Z,1015.36
2019-05-14T06:00:09.403Z,1015.44
2019-05-14T06:01:09.602Z,1015.38
2019-05-14T06:02:09.398Z,1015.43
2019-05-14T06:03:10.945Z,1015.44
2019-05-14T06:04:08.705Z,1015.48
2019-05-14T06:05:08.114Z,1015.37
2019-05-14T06:06:13.270Z,1015.46
2019-05-14T06:07:08.964Z,1015.45
2019-05-14T06:08:08.651Z,1015.43
2019-05-14T06:09:08.959Z,1015.47
2019-05-14T06:10:08.029Z,1015.49
2019-05-14T06:11:08.399Z,1015.42
2019-05-14T06:12:08.669Z,1015.48
2019-05-14T06:13:08.892Z,1015.51
2019-05-14T06:14:08.353Z,1015.48
2019-05-14T06:15:08.727Z,1015.49
2019-05-14T06:16:09.497Z,1015.40
2019-05-14T06:17:08.570Z,1015.43
2019-05-14T06:18:15.099Z,1015.38
2019-05-14T06:19:08.450Z,1015.40
2019-05-14T06:20:08.601Z,1015.32
2019-05-14T06:21:09.144Z,1015.36
2019-05-14T06:22:09.564Z,1015.39
2019-05-14T06:23:08.458Z,1015.46
2019-05-14T06:24:09.057Z,1015.42
2019-05-14T06:25:10.999Z,1015.44
2019-05-14T06:26:11.550Z,1015.33
2019-05-14T06:27:09.287Z,1015.41
2019-05-14T06:28:08.632Z,1015.38
2019-05-14T06:29:08.377Z,1015.40
2019-05-14T06:30:09.124Z,1015.37
2019-05-14T06:31:09.904Z,1015.38
2019-05-14T06:32:09.279Z,1015.36
2019-05-14T06:33:09.262Z,1015.35
2019-05-14T06:34:09.536Z,1015.35
2019-05-14T06:35:08.792Z,1015.27
2019-05-14T06:36:08.711Z,1015.31
2019-05-14T06:37:08.358Z,1015.32
2019-05-14T06:38:08.932Z,1015.24
2019-05-14T06:39:09.129Z,1015.29
2019-05-14T06:40:08.862Z,1015.24
2019-05-14T06:41:08.472Z,1015.27
2019-05-14T06:42:08.808Z,1015.25
2019-05-14T06:43:09.114Z,1015.28
2019-05-14T06:44:09.047Z,1015.28
2019-05-14T06:45:09.032Z,1015.25
2019-05-14T06:46:09.019Z,1015.32
2019-05-14T06:47:09.195Z,1015.21
2019-05-14T06:48:08.735Z,1015.27
2019-05-14T06:49:09.117Z,1015.37
2019-05-14T06:50:08.593Z,1015.36
2019-05-14T06:51:08.787Z,1015.35
2019-05-14T06:52:08.768Z,1015.37
2019-05-14T06:53:08.503Z,1015.33
2019-05-14T06:54:09.061Z,1015.32
2019-05-14T06:55:08.973Z,1015.34
2019-05-14T06:56:08.136Z,1015.28
2019-05-14T06:57:08.828Z,1015.34
2019-05-14T06:58:08.998Z,1015.36
2019-05-14T06:59:08.998Z,1015.37
2019-05-14T07:00:08.339Z,1015.36
2019-05-14T07:01:09.256Z,1015.34
2019-05-14T07:02:08.759Z,1015.34
2019-05-14T07:03:08.927Z,1015.40
2019-05-14T07:04:08.825Z,1015.38
2019-05-14T07:05:08.412Z,1015.40
2019-05-14T07:06:08.910Z,1015.38
2019-05-14T07:07:08.456Z,1015.34
2019-05-14T07:08:08.916Z,1015.29
2019-05-14T07:09:08.203Z,1015.35
2019-05-14T07:10:08.888Z,1015.31
2019-05-14T07:11:08.507Z,1015.28
2019-05-14T07:12:08.984Z,1015.35
2019-05-14T07:13:08.634Z,1015.33
2019-05-14T07:14:10.935Z,1015.28
2019-05-14T07:15:09.036Z,1015.25
2019-05-14T07:16:08.722Z,1015.30
2019-05-14T07:17:08.876Z,1015.26
2019-05-14T07:18:08.643Z,1015.26
2019-05-14T07:19:06.564Z,1015.26
2019-05-14T07:20:08.684Z,1015.27
2019-05-14T07:21:08.242Z,1015.22
2019-05-14T07:22:08.707Z,1015.25
2019-05-14T07:23:08.160Z,1015.22
2019-05-14T07:24:08.783Z,1015.21
2019-05-14T07:25:09.525Z,1015.23
2019-05-14T07:26:08.403Z,1015.19
2019-05-14T07:27:09.224Z,1015.24
2019-05-14T07:28:08.714Z,1015.27
2019-05-14T07:29:11.214Z,1015.17
2019-05-14T07:30:08.962Z,1015.23
2019-05-14T07:31:06.419Z,1015.21
2019-05-14T07:32:08.762Z,1015.22
2019-05-14T07:33:06.391Z,1015.18
2019-05-14T07:34:08.713Z,1015.15
2019-05-14T07:35:08.935Z,1015.20
2019-05-14T07:36:08.611Z,1015.13
2019-05-14T07:37:09.033Z,1015.12
2019-05-14T07:38:08.774Z,1015.08
2019-05-14T07:39:09.082Z,1015.12
2019-05-14T07:40:08.467Z,1015.17
2019-05-14T07:41:08.948Z,1015.17
2019-05-14T07:42:06.363Z,1015.16
2019-05-14T07:43:08.843Z,1015.20
2019-05-14T07:44:06.277Z,1015.17
2019-05-14T07:45:06.255Z,1015.20
2019-05-14T07:46:08.294Z,1015.20
2019-05-14T07:47:08.159Z,1015.23
2019-05-14T07:48:08.732Z,1015.11
2019-05-14T07:49:09.320Z,1015.15
2019-05-14T07:50:08.608Z,1015.09
2019-05-14T07:51:08.785Z,1015.10
2019-05-14T07:52:06.179Z,1015.11
2019-05-14T07:53:08.548Z,1015.12
2019-05-14T07:54:08.159Z,1015.04
2019-05-14T07:55:06.139Z,1015.07
2019-05-14T07:56:06.129Z,1015.10
2019-05-14T07:57:08.459Z,1015.15
2019-05-14T07:58:08.196Z,1015.11
2019-05-14T07:59:06.102Z,1015.13
2019-05-14T08:00:08.065Z,1015.14
2019-05-14T08:01:06.070Z,1015.09
2019-05-14T08:02:06.061Z,1015.15
2019-05-14T08:03:08.110Z,1015.13
2019-05-14T08:04:10.135Z,1015.16
2019-05-14T08:05:06.031Z,1015.15
2019-05-14T08:06:08.191Z,1015.17
2019-05-14T08:07:08.711Z,1015.16
2019-05-14T08:08:07.943Z,1015.08
2019-05-14T08:09:08.446Z,1015.14
2019-05-14T08:10:05.968Z,1015.13
2019-05-14T08:11:08.428Z,1015.15
2019-05-14T08:12:06.011Z,1015.15
2019-05-14T08:13:08.324Z,1015.20
2019-05-14T08:14:05.926Z,1015.09
2019-05-14T08:15:15.408Z,1015.08
2019-05-14T08:16:08.919Z,1015.04
2019-05-14T08:17:08.463Z,1014.97
2019-05-14T08:18:08.132Z,1014.94
2019-05-14T08:19:20.950Z,1015.02
2019-05-14T08:20:08.875Z,1015.02
2019-05-14T08:21:08.282Z,1015.06
2019-05-14T08:22:05.826Z,1015.00
2019-05-14T08:23:05.825Z,1014.90
2019-05-14T08:24:08.688Z,1014.98
2019-05-14T08:25:05.794Z,1014.96
2019-05-14T08:26:07.795Z,1015.02
2019-05-14T08:27:05.771Z,1015.00
2019-05-14T08:28:07.972Z,1015.03
2019-05-14T08:29:05.754Z,1015.01
2019-05-14T08:30:08.092Z,1015.05
2019-05-14T08:31:05.726Z,1015.02
2019-05-14T08:32:05.732Z,1015.02
2019-05-14T08:33:05.700Z,1015.07
2019-05-14T08:34:06.680Z,1014.98
2019-05-14T08:35:05.697Z,1015.01
2019-05-14T08:36:05.740Z,1014.96
2019-05-14T08:37:05.654Z,1014.96
2019-05-14T08:38:11.359Z,1014.90
2019-05-14T08:39:08.638Z,1014.95
2019-05-14T08:40:05.641Z,1014.95
2019-05-14T08:41:08.198Z,1014.93
2019-05-14T08:42:08.299Z,1014.95
2019-05-14T08:43:05.587Z,1014.98
2019-05-14T08:44:05.575Z,1015.00
2019-05-14T08:45:10.558Z,1014.99
2019-05-14T08:46:08.176Z,1014.97
2019-05-14T08:47:05.544Z,1015.00
2019-05-14T08:48:05.614Z,1014.93
2019-05-14T08:49:05.516Z,1014.91
2019-05-14T08:50:05.506Z,1014.87
2019-05-14T08:51:05.494Z,1014.84
2019-05-14T08:52:05.480Z,1014.90
2019-05-14T08:53:05.485Z,1014.85
2019-05-14T08:54:05.534Z,1014.90
2019-05-14T08:55:10.083Z,1014.89
2019-05-14T08:56:08.374Z,1014.92
2019-05-14T08:57:05.490Z,1014.87
2019-05-14T08:58:10.381Z,1014.79
2019-05-14T08:59:08.650Z,1014.85
2019-05-14T09:00:05.406Z,1014.92
2019-05-14T09:01:05.377Z,1014.86
2019-05-14T09:02:06.481Z,1014.77
2019-05-14T09:03:05.361Z,1014.90
2019-05-14T09:04:05.343Z,1014.80
2019-05-14T09:05:07.075Z,1014.76
2019-05-14T09:06:05.335Z,1014.77
2019-05-14T09:07:05.312Z,1014.82
2019-05-14T09:08:05.297Z,1014.79
2019-05-14T09:09:05.286Z,1014.81
2019-05-14T09:10:05.280Z,1014.73
2019-05-14T09:11:05.344Z,1014.71
2019-05-14T09:12:05.262Z,1014.69
2019-05-14T09:13:05.243Z,1014.74
2019-05-14T09:14:05.252Z,1014.75
2019-05-14T09:15:05.219Z,1014.66
2019-05-14T09:16:05.206Z,1014.61
2019-05-14T09:17:05.280Z,1014.51
2019-05-14T09:18:05.200Z,1014.69
2019-05-14T09:19:05.175Z,1014.62
2019-05-14T09:20:07.164Z,1014.60
2019-05-14T09:21:05.153Z,1014.65
2019-05-14T09:22:05.144Z,1014.66
2019-05-14T09:23:05.203Z,1014.69
2019-05-14T09:24:05.119Z,1014.80
2019-05-14T09:25:05.108Z,1014.68
2019-05-14T09:26:05.100Z,1014.61
2019-05-14T09:27:05.553Z,1014.66
2019-05-14T09:28:05.075Z,1014.72
2019-05-14T09:29:18.419Z,1014.65
2019-05-14T09:30:06.049Z,1014.65
2019-05-14T09:31:05.046Z,1014.61
2019-05-14T09:32:05.030Z,1014.48
2019-05-14T09:33:05.029Z,1014.59
2019-05-14T09:34:05.004Z,1014.54
2019-05-14T09:35:05.066Z,1014.56
2019-05-14T09:36:14.861Z,1014.51
2019-05-14T09:37:08.405Z,1014.52
2019-05-14T09:38:04.963Z,1014.42
2019-05-14T09:39:04.945Z,1014.53
2019-05-14T09:40:04.935Z,1014.63
2019-05-14T09:41:11.167Z,1014.57
2019-05-14T09:42:07.961Z,1014.43
2019-05-14T09:43:04.902Z,1014.55
2019-05-14T09:44:04.889Z,1014.52
2019-05-14T09:45:04.889Z,1014.52
2019-05-14T09:46:04.866Z,1014.54
2019-05-14T09:47:04.942Z,1014.46
2019-05-14T09:48:04.846Z,1014.47
2019-05-14T09:49:04.840Z,1014.52
2019-05-14T09:50:16.406Z,1014.48
2019-05-14T09:51:05.815Z,1014.53
2019-05-14T09:52:04.797Z,1014.42
2019-05-14T09:53:04.864Z,1014.46
2019-05-14T09:54:04.778Z,1014.39
2019-05-14T09:55:04.776Z,1014.43
2019-05-14T09:56:04.754Z,1014.39
2019-05-14T09:57:04.748Z,1014.43
2019-05-14T09:58:04.731Z,1014.41
2019-05-14T09:59:04.801Z,1014.31
2019-05-14T10:00:04.707Z,1014.37
2019-05-14T10:01:04.697Z,1014.31
2019-05-14T10:02:04.688Z,1014.32
2019-05-14T10:03:04.685Z,1014.29
2019-05-14T10:04:04.673Z,1014.35
2019-05-14T10:05:04.725Z,1014.28
2019-05-14T10:06:04.638Z,1014.29
2019-05-14T10:07:04.629Z,1014.27
2019-05-14T10:08:04.621Z,1014.29
2019-05-14T10:09:04.610Z,1014.34
2019-05-14T10:10:04.601Z,1014.34
2019-05-14T10:11:04.662Z,1014.29
2019-05-14T10:12:04.568Z,1014.26
2019-05-14T10:13:04.558Z,1014.58
2019-05-14T10:14:04.550Z,1014.33
2019-05-14T10:15:04.537Z,1014.26
2019-05-14T10:16:04.525Z,1014.29
2019-05-14T10:17:04.586Z,1014.36
2019-05-14T10:18:04.501Z,1014.20
2019-05-14T10:19:04.489Z,1014.29
2019-05-14T10:20:04.490Z,1014.26
2019-05-14T10:21:04.474Z,1014.25
2019-05-14T10:22:04.458Z,1014.31
2019-05-14T10:23:04.516Z,1014.34
2019-05-14T10:24:04.446Z,1014.33
2019-05-14T10:25:04.430Z,1014.30
2019-05-14T10:26:04.408Z,1014.41
2019-05-14T10:27:04.398Z,1014.34
2019-05-14T10:28:04.391Z,1014.28
2019-05-14T10:29:04.438Z,1014.28
2019-05-14T10:30:04.381Z,1014.33
2019-05-14T10:31:04.364Z,1014.31
2019-05-14T10:32:04.345Z,1014.21
2019-05-14T10:33:09.542Z,1014.26
2019-05-14T10:34:05.401Z,1014.22
2019-05-14T10:35:04.310Z,1014.24
2019-05-14T10:36:04.294Z,1014.25
2019-05-14T10:37:04.297Z,1014.26
2019-05-14T10:38:04.272Z,1014.28
2019-05-14T10:39:04.261Z,1014.23
2019-05-14T10:40:04.323Z,1014.43
2019-05-14T10:41:04.237Z,1014.13
2019-05-14T10:42:04.227Z,1014.07
2019-05-14T10:43:04.223Z,1014.11
2019-05-14T10:44:04.209Z,1014.13
2019-05-14T10:45:04.202Z,1014.06
2019-05-14T10:46:04.246Z,1014.08
2019-05-14T10:47:04.175Z,1014.02
2019-05-14T10:48:04.168Z,1014.05
2019-05-14T10:49:16.319Z,1014.07
2019-05-14T10:50:05.132Z,1014.03
2019-05-14T10:51:04.130Z,1014.05
2019-05-14T10:52:04.172Z,1014.10
2019-05-14T10:53:04.097Z,1014.08
2019-05-14T10:54:18.878Z,1014.16
2019-05-14T10:55:05.080Z,1014.12
2019-05-14T10:56:04.063Z,1014.06
2019-05-14T10:57:04.051Z,1014.12
2019-05-14T10:58:04.101Z,1013.97
2019-05-14T10:59:04.034Z,1014.02
2019-05-14T11:00:04.031Z,1014.02
2019-05-14T11:01:04.062Z,1014.08
2019-05-14T11:02:03.998Z,1014.05
2019-05-14T11:03:03.982Z,1014.05
2019-05-14T11:04:04.030Z,1014.08
2019-05-14T11:05:03.958Z,1014.12
2019-05-14T11:06:03.956Z,1014.11
2019-05-14T11:07:03.936Z,1014.00
2019-05-14T11:08:03.922Z,1013.98
2019-05-14T11:09:03.915Z,1014.11
2019-05-14T11:10:04.084Z,1014.00
2019-05-14T11:11:04.438Z,1013.97
2019-05-14T11:12:03.894Z,1013.96
2019-05-14T11:13:03.866Z,1014.00
2019-05-14T11:14:03.859Z,1014.05
2019-05-14T11:15:03.845Z,1013.97
2019-05-14T11:16:03.902Z,1014.02
2019-05-14T11:17:03.826Z,1014.01
2019-05-14T11:18:03.818Z,1013.94
2019-05-14T11:19:03.814Z,1014.17
2019-05-14T11:20:03.787Z,1014.07
2019-05-14T11:21:18.834Z,1013.92
2019-05-14T11:22:04.839Z,1013.80
2019-05-14T11:23:03.761Z,1013.85
2019-05-14T11:24:03.749Z,1013.77
2019-05-14T11:25:03.738Z,1013.87
2019-05-14T11:26:03.732Z,1013.81
2019-05-14T11:27:03.715Z,1013.84
2019-05-14T11:28:03.764Z,1013.76
2019-05-14T11:29:03.694Z,1013.68
2019-05-14T11:30:03.681Z,1013.74
2019-05-14T11:31:03.666Z,1013.84
2019-05-14T11:32:03.668Z,1014.14
2019-05-14T11:33:03.646Z,1014.13
2019-05-14T11:34:03.703Z,1014.03
2019-05-14T11:35:03.622Z,1014.09
2019-05-14T11:36:03.610Z,1014.11
2019-05-14T11:37:03.595Z,1014.06
2019-05-14T11:38:03.613Z,1014.13
2019-05-14T11:39:04.193Z,1014.05
2019-05-14T11:40:03.645Z,1013.58
2019-05-14T11:41:03.556Z,1013.55
2019-05-14T11:42:03.538Z,1013.64
2019-05-14T11:43:03.531Z,1013.57
2019-05-14T11:44:03.531Z,1013.62
2019-05-14T11:45:03.526Z,1013.57
2019-05-14T11:46:03.553Z,1014.08
2019-05-14T11:47:03.485Z,1013.99
2019-05-14T11:48:03.475Z,1013.92
2019-05-14T11:49:03.461Z,1013.79
2019-05-14T11:50:03.467Z,1013.82
2019-05-14T11:51:03.482Z,1013.86
2019-05-14T11:52:07.897Z,1013.90
2019-05-14T11:53:04.415Z,1013.81
2019-05-14T11:54:03.409Z,1013.58
2019-05-14T11:55:03.455Z,1013.80
2019-05-14T11:56:03.384Z,1013.81
2019-05-14T11:57:03.390Z,1013.70
2019-05-14T11:58:03.419Z,1013.76
2019-05-14T11:59:03.348Z,1013.69
2019-05-14T12:00:03.342Z,1013.77
2019-05-14T12:01:03.323Z,1013.75
2019-05-14T12:02:03.314Z,1013.32
2019-05-14T12:03:03.312Z,1013.69
2019-05-14T12:04:03.356Z,1013.74
2019-05-14T12:05:03.280Z,1013.63